Time;durP1;ratioP1;P1;durP2;ratioP2;P2;SDS_P1;SDS_P2;PMS_P1;PMS_P2;Temp;Humidity;BMP_temperature;BMP_pressure;BME280_temperature;BME280_humidity;BME280_pressure;Samples;Min_cycle;Max_cycle;Signal;HPM_P1;HPM_P2
2023/01/29 00:01:29;;;;;;;25.75;14.43;;;;;;;3.90;64.80;100908.34;5010336;28;20105;-85
2023/01/29 00:03:55;;;;;;;21.75;13.30;;;;;;;3.93;64.63;100920.66;5012204;28;20026;-85
2023/01/29 00:06:22;;;;;;;22.05;12.52;;;;;;;3.71;64.63;100902.22;5017723;28;20044;-84
2023/01/29 00:08:48;;;;;;;27.58;14.10;;;;;;;3.81;64.70;100915.00;5011451;28;20117;-86
2023/01/29 00:11:15;;;;;;;28.38;13.77;;;;;;;3.77;64.46;100912.56;5011279;28;20103;-85
2023/01/29 00:13:41;;;;;;;22.60;12.15;;;;;;;3.80;64.35;100923.03;5011792;28;20038;-86
2023/01/29 00:16:06;;;;;;;25.40;14.27;;;;;;;3.79;64.12;100916.00;5014834;28;20030;-85
2023/01/29 00:18:32;;;;;;;21.88;12.75;;;;;;;3.81;64.33;100914.13;5018539;28;20398;-86
2023/01/29 00:20:57;;;;;;;22.60;12.98;;;;;;;3.62;64.51;100911.50;5012354;28;20030;-85
2023/01/29 00:23:23;;;;;;;24.55;12.40;;;;;;;3.66;64.24;100936.16;5025486;28;20038;-83
2023/01/29 00:25:49;;;;;;;20.63;11.80;;;;;;;3.61;64.37;100920.41;5026079;28;20058;-84
2023/01/29 00:28:14;;;;;;;22.60;12.25;;;;;;;3.60;64.72;100921.38;5018665;28;20029;-84
2023/01/29 00:30:40;;;;;;;25.30;13.40;;;;;;;3.67;64.77;100922.78;5011639;28;20034;-86
2023/01/29 00:33:06;;;;;;;23.70;12.45;;;;;;;3.62;64.47;100914.16;5026696;28;20030;-87
2023/01/29 00:35:31;;;;;;;23.42;12.60;;;;;;;3.62;64.59;100921.28;5011578;28;20033;-86
2023/01/29 00:37:57;;;;;;;31.33;15.05;;;;;;;3.69;65.22;100926.25;5012463;28;20026;-86
2023/01/29 00:40:24;;;;;;;19.13;11.55;;;;;;;3.70;64.97;100921.78;5024240;28;20017;-85
2023/01/29 00:45:37;;;;;;;20.30;11.43;;;;;;;3.49;64.79;100901.50;5011487;28;20064;-83
2023/01/29 00:48:03;;;;;;;22.13;11.70;;;;;;;3.57;64.95;100917.97;5014998;28;20482;-85
2023/01/29 00:50:29;;;;;;;19.52;11.13;;;;;;;3.57;64.80;100925.97;5013867;28;20026;-85
2023/01/29 00:52:55;;;;;;;22.55;11.98;;;;;;;3.59;64.44;100929.41;5015962;28;20037;-84
2023/01/29 00:55:21;;;;;;;20.52;11.52;;;;;;;3.61;64.40;100927.53;5015950;28;20441;-86
2023/01/29 00:57:47;;;;;;;18.77;10.55;;;;;;;3.52;64.45;100904.91;5011855;28;20555;-83
2023/01/29 01:00:15;;;;;;;17.85;9.98;;;;;;;3.53;64.54;100909.28;5011654;28;20026;-84
2023/01/29 01:05:26;;;;;;;18.02;10.77;;;;;;;3.68;64.72;100923.63;5011894;28;20064;-85
2023/01/29 01:07:54;;;;;;;18.63;10.38;;;;;;;3.73;64.09;100926.97;5014303;28;20034;-85
2023/01/29 01:10:30;;;;;;;15.40;8.68;;;;;;;3.69;63.83;100914.72;5015735;28;20034;-85
2023/01/29 01:13:00;;;;;;;14.00;7.93;;;;;;;3.56;64.19;100913.59;5014935;28;20148;-85
2023/01/29 01:15:38;;;;;;;13.23;8.85;;;;;;;3.46;64.31;100923.78;5011552;28;20030;-84
2023/01/29 01:18:04;;;;;;;13.73;7.60;;;;;;;3.47;64.08;100911.38;5020993;28;20025;-84
2023/01/29 01:20:33;;;;;;;13.05;8.07;;;;;;;3.57;64.27;100931.28;5015000;28;20140;-85
2023/01/29 01:22:58;;;;;;;14.63;8.70;;;;;;;3.62;64.23;100934.56;5011821;28;20383;-85
2023/01/29 01:25:25;;;;;;;13.75;7.55;;;;;;;3.41;64.29;100914.31;5021239;28;20037;-85
2023/01/29 01:27:52;;;;;;;11.82;7.95;;;;;;;3.53;64.16;100927.91;5026824;28;20111;-85
2023/01/29 01:30:18;;;;;;;13.40;7.28;;;;;;;3.52;64.36;100933.28;5021680;28;20041;-85
2023/01/29 01:32:44;;;;;;;15.68;8.15;;;;;;;3.63;63.82;100928.31;5015199;28;20018;-83
2023/01/29 01:35:10;;;;;;;10.93;7.57;;;;;;;3.57;63.37;100931.28;5011926;28;20468;-83
2023/01/29 01:37:39;;;;;;;12.18;7.53;;;;;;;3.46;64.12;100937.09;5010527;28;20040;-84
2023/01/29 01:40:11;;;;;;;15.18;9.02;;;;;;;3.44;64.71;100930.13;5010995;28;20041;-85
2023/01/29 01:42:39;;;;;;;;;;;;;;;3.44;64.76;100940.75;5011256;28;20022;-84
2023/01/29 01:45:09;;;;;;;13.57;8.35;;;;;;;3.33;65.13;100943.06;5008923;28;20016;-84
2023/01/29 01:47:58;;;;;;;11.80;7.32;;;;;;;3.36;64.91;100956.22;5013327;28;20111;-86
2023/01/29 01:50:38;;;;;;;12.45;8.15;;;;;;;3.45;64.50;100945.16;5018794;28;20022;-86
2023/01/29 01:53:08;;;;;;;15.57;7.60;;;;;;;3.42;64.92;100943.50;5014233;28;20565;-85
2023/01/29 01:55:37;;;;;;;11.35;7.63;;;;;;;3.41;64.64;100963.03;5014232;28;20022;-85
2023/01/29 01:58:09;;;;;;;14.43;8.43;;;;;;;3.39;65.06;100945.44;5013915;28;20033;-85
2023/01/29 02:00:35;;;;;;;19.20;9.90;;;;;;;3.29;64.75;100953.84;5013409;28;20022;-85
2023/01/29 02:11:41;;;;;;;17.50;8.80;;;;;;;3.39;64.88;100964.91;5013210;28;20571;-83
2023/01/29 02:14:07;;;;;;;23.15;8.60;;;;;;;3.42;64.64;100962.13;5012288;28;20030;-85
2023/01/29 02:16:34;;;;;;;14.10;8.38;;;;;;;3.50;64.63;100975.03;5014825;28;20022;-85
2023/01/29 02:19:01;;;;;;;12.60;7.75;;;;;;;3.45;64.30;100956.66;5015966;28;20033;-86
2023/01/29 02:21:51;;;;;;;12.80;7.75;;;;;;;3.51;64.37;100974.13;5014268;28;20022;-85
2023/01/29 02:24:52;;;;;;;13.02;8.00;;;;;;;3.34;64.63;100971.34;5014213;28;20562;-84
2023/01/29 02:27:40;;;;;;;15.60;9.07;;;;;;;3.49;64.60;100963.53;5019491;28;20053;-84
2023/01/29 02:30:35;;;;;;;13.90;8.13;;;;;;;3.52;64.29;100965.19;5034887;28;20049;-84
2023/01/29 02:33:25;;;;;;;14.55;7.97;;;;;;;3.56;64.39;100958.78;5022034;28;20146;-85
2023/01/29 02:36:03;;;;;;;16.73;9.68;;;;;;;3.66;64.58;100962.75;5014543;28;20056;-84
2023/01/29 02:38:37;;;;;;;13.63;7.22;;;;;;;3.69;64.23;100930.69;5013838;28;20454;-86
2023/01/29 02:41:30;;;;;;;11.93;7.03;;;;;;;3.66;64.45;100946.78;5013439;28;20489;-84
2023/01/29 02:44:02;;;;;;;12.48;7.72;;;;;;;3.55;64.23;100914.50;5021287;28;20057;-84
2023/01/29 02:46:36;;;;;;;12.67;6.97;;;;;;;3.47;63.43;100940.63;5014036;28;20029;-86
2023/01/29 02:49:19;;;;;;;11.75;7.35;;;;;;;3.41;64.33;100935.59;5013555;28;20116;-82
2023/01/29 02:52:00;;;;;;;19.25;9.10;;;;;;;3.28;64.45;100927.31;5012862;28;20034;-84
2023/01/29 02:54:38;;;;;;;18.33;10.30;;;;;;;3.10;63.85;100915.75;5013358;28;20398;-85
2023/01/29 02:57:13;;;;;;;16.42;8.85;;;;;;;2.98;64.01;100921.63;5012415;28;20037;-85
2023/01/29 02:59:47;;;;;;;16.52;10.30;;;;;;;2.85;63.76;100891.25;5013359;28;20038;-85
2023/01/29 03:02:29;;;;;;;18.80;10.75;;;;;;;2.85;63.84;100912.50;4993481;28;20105;-85
2023/01/29 03:05:00;;;;;;;23.92;10.15;;;;;;;2.61;64.59;100910.94;5012796;28;20065;-85
2023/01/29 03:07:43;;;;;;;21.25;10.90;;;;;;;2.66;64.81;100916.91;5012943;28;20124;-84
2023/01/29 03:10:38;;;;;;;21.40;10.32;;;;;;;2.67;65.31;100902.69;5012517;28;20422;-85
2023/01/29 03:13:35;;;;;;;16.48;9.50;;;;;;;2.59;65.72;100923.41;4932393;29;20047;-87
2023/01/29 03:16:08;;;;;;;15.50;9.57;;;;;;;2.56;65.90;100912.94;4876620;29;20507;-85
2023/01/29 03:18:44;;;;;;;18.08;8.02;;;;;;;2.63;65.86;100909.09;4876246;29;20610;-84
2023/01/29 03:32:17;;;;;;;22.10;10.68;;;;;;;2.44;66.38;100911.69;4890609;29;20104;-83
2023/01/29 03:34:50;;;;;;;60.90;23.42;;;;;;;2.43;66.22;100906.44;4889390;29;20051;-85
2023/01/29 03:37:28;;;;;;;18.27;10.70;;;;;;;2.42;66.33;100899.38;4875814;29;20048;-84
2023/01/29 03:39:54;;;;;;;22.67;11.00;;;;;;;2.33;65.94;100905.09;4875910;29;20112;-84
2023/01/29 03:42:56;;;;;;;21.65;10.85;;;;;;;2.39;66.35;100907.47;4875591;29;20529;-84
2023/01/29 03:46:00;;;;;;;19.50;10.65;;;;;;;2.34;66.22;100912.13;4861515;29;20502;-84
2023/01/29 03:48:54;;;;;;;21.13;10.85;;;;;;;2.17;66.56;100919.00;4858761;29;20033;-86
2023/01/29 03:51:33;;;;;;;21.13;10.85;;;;;;;2.18;67.14;100933.16;4916986;29;20209;-85
2023/01/29 03:54:09;;;;;;;28.08;11.80;;;;;;;2.00;67.10;100918.88;5010304;28;20094;-82
2023/01/29 03:56:34;;;;;;;24.05;12.85;;;;;;;2.07;67.73;100924.78;5017111;28;20037;-83
2023/01/29 03:59:12;;;;;;;19.48;10.48;;;;;;;1.95;67.52;100915.56;5013880;28;20026;-85
2023/01/29 04:02:06;;;;;;;21.42;11.27;;;;;;;2.07;67.79;100919.47;5012379;28;20032;-84
2023/01/29 04:04:38;;;;;;;20.00;12.02;;;;;;;2.01;67.84;100904.69;5008928;28;20040;-84
2023/01/29 04:07:22;;;;;;;22.38;11.73;;;;;;;2.15;67.80;100918.22;4993329;28;20494;-85
2023/01/29 04:10:10;;;;;;;24.25;13.00;;;;;;;2.22;67.78;100923.28;4992247;28;20038;-85
2023/01/29 04:12:45;;;;;;;20.02;10.95;;;;;;;2.15;67.93;100917.38;4990439;28;20027;-86
2023/01/29 04:15:14;;;;;;;18.90;11.13;;;;;;;2.12;68.56;100923.66;4993248;28;20046;-85
2023/01/29 04:17:47;;;;;;;23.55;11.90;;;;;;;2.06;68.88;100939.84;4992283;28;20052;-84
2023/01/29 04:20:13;;;;;;;21.38;11.23;;;;;;;2.20;68.84;100944.59;4992026;28;20037;-84
2023/01/29 04:22:40;;;;;;;24.58;12.30;;;;;;;2.27;68.90;100932.75;4991887;28;20026;-85
2023/01/29 04:25:14;;;;;;;25.00;12.82;;;;;;;2.23;68.84;100956.84;4992268;28;20030;-86
2023/01/29 04:27:40;;;;;;;20.23;10.98;;;;;;;2.42;68.88;100995.81;4992084;28;20116;-85
2023/01/29 04:30:32;;;;;;;24.17;11.98;;;;;;;2.49;68.86;101004.38;4992197;28;20470;-85
2023/01/29 04:33:00;;;;;;;22.50;11.32;;;;;;;2.49;68.34;100997.28;4944187;29;20040;-85
2023/01/29 04:35:35;;;;;;;26.70;11.48;;;;;;;2.54;68.20;101005.03;4947494;29;20111;-84
2023/01/29 04:38:22;;;;;;;24.13;13.00;;;;;;;2.65;68.44;101008.13;4937803;29;20047;-85
2023/01/29 04:41:07;;;;;;;16.98;11.23;;;;;;;2.56;68.64;101027.97;4931891;29;20040;-85
2023/01/29 04:43:55;;;;;;;26.23;12.80;;;;;;;2.68;69.35;101023.91;4931051;29;20090;-86
2023/01/29 04:46:40;;;;;;;21.92;12.02;;;;;;;2.80;68.81;101022.53;4893284;29;20040;-84
2023/01/29 04:49:26;;;;;;;24.30;12.00;;;;;;;2.80;68.39;101023.41;4893908;29;20043;-86
2023/01/29 04:52:06;;;;;;;20.58;11.07;;;;;;;2.78;68.66;101022.59;4893087;29;20054;-86
2023/01/29 04:54:53;;;;;;;21.80;11.85;;;;;;;2.91;68.65;101039.72;4893286;29;20064;-84
2023/01/29 04:57:25;;;;;;;20.23;10.70;;;;;;;2.94;68.47;101042.25;4903649;29;20037;-85
2023/01/29 05:00:06;;;;;;;23.42;11.00;;;;;;;2.98;68.92;101043.84;4894541;29;20036;-84
2023/01/29 05:02:36;;;;;;;19.45;10.68;;;;;;;2.92;68.99;101028.16;4893614;29;20168;-85
2023/01/29 05:05:03;;;;;;;18.95;10.90;;;;;;;2.91;68.65;101047.69;4892881;29;20040;-84
2023/01/29 05:07:30;;;;;;;18.08;10.38;;;;;;;3.02;68.47;101056.06;4896476;29;20029;-84
2023/01/29 05:09:56;;;;;;;19.98;10.95;;;;;;;2.94;68.14;101039.59;4913846;29;20103;-85
2023/01/29 05:12:26;;;;;;;20.00;11.30;;;;;;;3.04;68.25;101032.94;4935585;29;20031;-84
2023/01/29 05:14:55;;;;;;;18.00;9.77;;;;;;;3.15;68.27;101051.09;4950672;29;20139;-80
2023/01/29 05:17:20;;;;;;;16.83;10.88;;;;;;;3.22;68.38;101057.84;4950007;29;20094;-83
2023/01/29 05:19:46;;;;;;;15.50;9.90;;;;;;;3.19;67.92;101039.38;4962161;28;20022;-83
2023/01/29 05:22:16;;;;;;;14.93;9.98;;;;;;;3.15;67.70;101035.97;4969695;28;20043;-84
2023/01/29 05:24:42;;;;;;;16.60;10.93;;;;;;;3.27;67.32;101062.00;4993414;28;20175;-85
2023/01/29 05:30:05;;;;;;;13.48;9.60;;;;;;;3.29;67.29;101054.84;4995583;28;20548;-83
2023/01/29 05:32:31;;;;;;;17.73;10.00;;;;;;;3.38;66.85;101058.88;5005736;28;20033;-84
2023/01/29 05:34:56;;;;;;;17.00;9.95;;;;;;;3.38;66.77;101040.28;5016090;28;20046;-83
2023/01/29 05:37:22;;;;;;;18.15;9.63;;;;;;;3.32;66.40;101052.97;5016914;28;20057;-83
2023/01/29 05:39:47;;;;;;;20.38;10.45;;;;;;;3.28;67.00;101053.13;5009761;28;20018;-85
2023/01/29 05:42:13;;;;;;;15.98;9.52;;;;;;;3.35;67.31;101058.16;5004359;28;20042;-84
2023/01/29 05:44:38;;;;;;;17.33;9.13;;;;;;;3.40;66.76;101056.16;5005496;28;20026;-84
2023/01/29 05:47:04;;;;;;;14.38;8.98;;;;;;;3.40;67.02;101067.66;5003432;28;20053;-84
2023/01/29 05:49:30;;;;;;;16.95;9.63;;;;;;;3.37;66.65;101061.59;5007256;28;20046;-85
2023/01/29 05:51:55;;;;;;;17.95;10.00;;;;;;;3.41;66.69;101069.38;5003018;28;20093;-84
2023/01/29 05:54:21;;;;;;;20.10;10.02;;;;;;;3.35;67.05;101074.09;5004340;28;20018;-84
2023/01/29 05:56:46;;;;;;;19.15;10.10;;;;;;;3.42;66.82;101063.16;5004049;28;20462;-83
2023/01/29 05:59:12;;;;;;;18.58;10.18;;;;;;;3.48;66.43;101075.28;5003130;28;20537;-82
2023/01/29 06:01:37;;;;;;;17.42;9.63;;;;;;;3.53;66.57;101090.09;5004416;28;20112;-86
2023/01/29 06:04:03;;;;;;;16.48;9.25;;;;;;;3.46;66.80;101082.47;5003519;28;20023;-85
2023/01/29 06:06:28;;;;;;;17.65;9.88;;;;;;;3.59;66.72;101095.16;5003535;28;20025;-84
2023/01/29 06:08:55;;;;;;;18.10;8.82;;;;;;;3.59;66.46;101088.97;5010334;28;20080;-85
2023/01/29 06:11:21;;;;;;;14.95;8.73;;;;;;;3.46;66.33;101111.72;5009738;28;20026;-85
2023/01/29 06:13:47;;;;;;;16.98;10.27;;;;;;;3.45;66.74;101104.69;5011833;28;20033;-85
2023/01/29 06:16:13;;;;;;;18.45;10.57;;;;;;;3.46;67.07;101099.28;5013343;28;20026;-78
2023/01/29 06:18:39;;;;;;;16.20;9.45;;;;;;;3.59;66.95;101105.78;5014597;28;20025;-83
2023/01/29 06:21:08;;;;;;;21.02;10.48;;;;;;;3.58;66.53;101103.19;5019575;28;20029;-82
2023/01/29 06:23:34;;;;;;;16.67;10.55;;;;;;;3.53;66.51;101090.09;5015597;28;20033;-77
2023/01/29 06:26:00;;;;;;;23.10;11.32;;;;;;;3.59;66.90;101107.56;5003876;28;20404;-78
2023/01/29 06:28:26;;;;;;;23.85;11.00;;;;;;;3.61;66.89;101114.53;5002268;28;20030;-78
2023/01/29 06:30:52;;;;;;;19.17;8.98;;;;;;;3.66;66.85;101106.38;5009884;28;20033;-78
2023/01/29 06:33:17;;;;;;;26.67;12.27;;;;;;;3.74;66.48;101121.03;5013998;28;20037;-84
2023/01/29 06:35:42;;;;;;;24.38;10.50;;;;;;;3.66;66.59;101127.66;5012474;28;20033;-80
2023/01/29 06:38:08;;;;;;;20.27;11.38;;;;;;;3.71;66.22;101126.50;5012689;28;20080;-83
2023/01/29 06:40:33;;;;;;;18.60;9.77;;;;;;;3.54;66.20;101117.56;5023982;28;20029;-83
2023/01/29 06:43:00;;;;;;;22.58;12.35;;;;;;;3.22;66.94;101140.22;5029905;28;20055;-81
2023/01/29 06:45:25;;;;;;;19.20;10.63;;;;;;;3.27;67.27;101130.28;5030887;28;20651;-80
2023/01/29 06:47:51;;;;;;;23.27;11.35;;;;;;;3.41;67.49;101132.31;5030839;28;20133;-81
2023/01/29 06:50:17;;;;;;;18.95;10.57;;;;;;;3.50;67.48;101142.56;5031921;28;20032;-82
2023/01/29 06:52:42;;;;;;;20.05;11.27;;;;;;;3.57;67.28;101120.09;5030597;28;20033;-81
2023/01/29 06:55:08;;;;;;;27.40;12.13;;;;;;;3.67;67.22;101129.38;5031424;28;20037;-81
2023/01/29 06:57:33;;;;;;;21.90;11.63;;;;;;;3.74;66.39;101118.38;5032042;28;20033;-81
2023/01/29 06:59:59;;;;;;;20.10;10.63;;;;;;;3.80;66.05;101127.88;5031902;28;20128;-82
2023/01/29 07:02:24;;;;;;;25.75;12.02;;;;;;;3.70;65.39;101126.59;5036893;28;20025;-79
2023/01/29 07:04:50;;;;;;;23.20;12.10;;;;;;;3.69;65.68;101117.75;5031209;28;20452;-81
2023/01/29 07:07:15;;;;;;;27.23;12.77;;;;;;;3.82;65.68;101144.66;5033699;28;20029;-79
2023/01/29 07:09:42;;;;;;;21.77;11.63;;;;;;;3.72;65.26;101132.69;5031146;28;20037;-81
2023/01/29 07:12:09;;;;;;;25.52;12.43;;;;;;;3.77;64.83;101154.63;5030622;28;20029;-83
2023/01/29 07:14:35;;;;;;;23.92;12.23;;;;;;;3.53;65.30;101134.44;5030690;28;20041;-81
2023/01/29 07:17:00;;;;;;;30.15;11.68;;;;;;;3.54;65.54;101125.53;5030059;28;20059;-81
2023/01/29 07:19:26;;;;;;;25.42;11.65;;;;;;;3.62;65.72;101118.06;5030251;28;20036;-80
2023/01/29 07:21:51;;;;;;;29.67;12.65;;;;;;;3.51;66.26;101123.88;5035208;28;20021;-80
2023/01/29 07:24:17;;;;;;;19.63;9.30;;;;;;;3.64;65.09;101126.88;5030585;28;20033;-82
2023/01/29 07:26:43;;;;;;;17.38;10.48;;;;;;;3.58;64.95;101119.13;5030598;28;20049;-83
2023/01/29 07:29:09;;;;;;;29.02;11.50;;;;;;;3.48;65.70;101144.44;5030348;28;20032;-80
2023/01/29 07:31:34;;;;;;;17.13;10.43;;;;;;;3.37;65.60;101146.66;5030885;28;20033;-82
2023/01/29 07:33:59;;;;;;;16.63;8.60;;;;;;;3.41;65.75;101143.81;5030947;28;20029;-83
2023/01/29 07:36:26;;;;;;;14.95;9.10;;;;;;;3.49;65.64;101146.13;5032544;28;20029;-81
2023/01/29 07:38:51;;;;;;;17.80;9.93;;;;;;;3.45;65.36;101133.94;5031735;28;20022;-82
2023/01/29 07:41:17;;;;;;;18.83;9.38;;;;;;;3.50;65.48;101169.16;4995041;28;20030;-82
2023/01/29 07:43:42;;;;;;;24.25;10.50;;;;;;;3.45;65.07;101163.19;4991567;28;20256;-81
2023/01/29 07:46:08;;;;;;;18.45;10.25;;;;;;;3.46;65.33;101162.22;4991631;28;20113;-82
2023/01/29 07:48:34;;;;;;;19.73;10.75;;;;;;;3.48;65.14;101173.69;4989938;28;20124;-82
2023/01/29 07:50:59;;;;;;;23.00;8.70;;;;;;;3.62;64.97;101158.84;4991596;28;20034;-82
2023/01/29 07:53:26;;;;;;;26.20;11.00;;;;;;;3.54;64.85;101171.63;4991312;28;20124;-79
2023/01/29 07:55:52;;;;;;;21.30;9.98;;;;;;;3.57;65.45;101190.09;4992029;28;20018;-81
2023/01/29 07:58:17;;;;;;;19.88;10.38;;;;;;;3.74;65.29;101174.25;4991977;28;20033;-81
2023/01/29 08:00:43;;;;;;;19.23;11.38;;;;;;;3.74;64.50;101162.75;4998184;28;20007;-79
2023/01/29 08:03:11;;;;;;;16.17;9.68;;;;;;;3.85;63.69;101177.28;5015776;28;20042;-81
2023/01/29 08:05:37;;;;;;;20.23;9.52;;;;;;;3.94;63.88;101159.19;5015804;28;20237;-81
2023/01/29 08:08:03;;;;;;;17.38;9.60;;;;;;;3.88;63.85;101176.31;5002038;28;20041;-80
2023/01/29 08:10:29;;;;;;;17.73;10.15;;;;;;;4.00;63.18;101165.09;5000981;28;20034;-81
2023/01/29 08:12:59;;;;;;;20.00;9.52;;;;;;;3.88;63.33;101163.00;5005966;28;20034;-83
2023/01/29 08:15:25;;;;;;;15.50;8.85;;;;;;;4.00;63.36;101165.09;4992346;28;20026;-85
2023/01/29 08:17:52;;;;;;;18.35;8.10;;;;;;;4.02;63.21;101179.19;4992075;28;20109;-83
2023/01/29 08:20:18;;;;;;;19.25;10.55;;;;;;;4.09;62.78;101154.03;4990625;28;20037;-81
2023/01/29 08:22:44;;;;;;;15.60;9.98;;;;;;;4.09;63.08;101170.00;4990044;28;20026;-82
2023/01/29 08:25:10;;;;;;;19.08;10.73;;;;;;;4.12;63.40;101169.88;4990039;28;20108;-84
2023/01/29 08:27:35;;;;;;;15.30;9.10;;;;;;;4.14;63.07;101156.47;4989589;28;20093;-85
2023/01/29 08:30:01;;;;;;;18.02;9.75;;;;;;;4.24;63.39;101177.28;4990463;28;20026;-82
2023/01/29 08:32:26;;;;;;;18.08;8.60;;;;;;;4.16;63.36;101166.09;4990228;28;20060;-85
2023/01/29 08:34:52;;;;;;;20.23;9.32;;;;;;;4.03;64.02;101167.63;4990979;28;20026;-81
2023/01/29 08:37:17;;;;;;;18.83;9.32;;;;;;;3.87;64.28;101157.72;4995891;28;20031;-82
2023/01/29 08:39:43;;;;;;;16.52;8.77;;;;;;;3.77;65.17;101159.94;4991472;28;20418;-81
2023/01/29 08:42:08;;;;;;;15.18;8.80;;;;;;;3.73;65.56;101169.84;4990614;28;20046;-80
2023/01/29 08:44:34;;;;;;;20.00;10.15;;;;;;;3.60;65.51;101160.72;4989381;28;20022;-83
2023/01/29 08:47:00;;;;;;;20.65;9.50;;;;;;;3.57;66.75;101175.94;4992904;28;20442;-82
2023/01/29 08:49:25;;;;;;;19.63;9.40;;;;;;;3.56;66.17;101168.88;4989974;28;20027;-83
2023/01/29 08:51:51;;;;;;;16.55;9.52;;;;;;;3.48;66.36;101163.91;4990653;28;20026;-82
2023/01/29 08:54:16;;;;;;;17.67;9.13;;;;;;;3.47;66.80;101142.69;4989808;28;20023;-81
2023/01/29 08:56:42;;;;;;;12.75;8.48;;;;;;;3.54;66.84;101168.97;4989116;28;20073;-82
2023/01/29 08:59:09;;;;;;;18.67;9.57;;;;;;;3.52;66.95;101141.56;4990009;28;20568;-82
2023/01/29 09:01:35;;;;;;;16.80;8.80;;;;;;;3.59;66.51;101166.94;4993213;28;20523;-81
2023/01/29 09:04:00;;;;;;;16.52;8.88;;;;;;;3.61;66.49;101142.94;4993300;28;20030;-82
2023/01/29 09:06:26;;;;;;;17.15;8.68;;;;;;;3.55;66.00;101175.97;4993743;28;20406;-82
2023/01/29 09:08:51;;;;;;;17.25;9.45;;;;;;;3.53;66.07;101158.38;4994217;28;20041;-85
2023/01/29 09:11:17;;;;;;;18.90;9.48;;;;;;;3.52;66.93;101154.84;4993054;28;20576;-81
2023/01/29 09:13:42;;;;;;;14.93;8.57;;;;;;;3.67;66.38;101158.66;4993279;28;20034;-81
2023/01/29 09:16:08;;;;;;;14.38;8.27;;;;;;;3.71;66.47;101152.25;4993268;28;20374;-82
2023/01/29 09:18:33;;;;;;;18.98;9.45;;;;;;;3.74;65.74;101146.78;4994587;28;20579;-83
2023/01/29 09:21:00;;;;;;;15.65;8.75;;;;;;;3.77;65.71;101154.63;4993967;28;20030;-81
2023/01/29 09:23:26;;;;;;;16.83;9.68;;;;;;;3.68;65.46;101158.56;4995512;28;20398;-82
2023/01/29 09:25:51;;;;;;;16.02;9.30;;;;;;;3.73;64.95;101161.03;4993098;28;20085;-81
2023/01/29 09:28:17;;;;;;;21.77;9.38;;;;;;;3.73;64.81;101145.06;4993036;28;20788;-80
2023/01/29 09:30:43;;;;;;;15.55;8.70;;;;;;;3.75;64.94;101143.19;4991105;28;20103;-83
2023/01/29 09:33:08;;;;;;;30.73;9.50;;;;;;;3.82;64.77;101147.31;4992372;28;20038;-80
2023/01/29 09:35:34;;;;;;;17.88;9.30;;;;;;;3.88;64.52;101160.34;4990863;28;20032;-81
2023/01/29 09:38:00;;;;;;;24.60;10.25;;;;;;;3.85;64.35;101144.50;4993520;28;20038;-83
2023/01/29 09:40:34;;;;;;;21.02;10.65;;;;;;;3.86;64.10;101130.25;4996079;28;20113;-83
2023/01/29 09:43:15;;;;;;;13.98;8.40;;;;;;;3.75;64.84;101127.25;5013984;28;20022;-82
2023/01/29 09:46:04;;;;;;;21.00;10.38;;;;;;;3.93;65.11;101125.53;5011995;28;20472;-81
2023/01/29 09:48:35;;;;;;;15.80;8.77;;;;;;;3.87;63.68;101110.72;5012497;28;20106;-81
2023/01/29 09:51:07;;;;;;;16.17;9.25;;;;;;;3.92;63.44;101106.03;5012079;28;20030;-82
2023/01/29 09:53:41;;;;;;;;;;;;;;;4.00;62.94;101135.81;5012235;28;20052;-82
2023/01/29 09:56:18;;;;;;;21.98;10.48;;;;;;;3.94;62.88;101122.81;5019343;28;19917;-80
2023/01/29 09:58:44;;;;;;;18.98;10.45;;;;;;;3.98;63.25;101127.03;5019411;28;20042;-81
2023/01/29 10:01:39;;;;;;;18.95;9.95;;;;;;;4.00;63.11;101121.66;5021774;28;20092;-83
2023/01/29 10:04:32;;;;;;;20.27;10.18;;;;;;;3.90;62.95;101123.88;5013627;28;20219;-84
2023/01/29 10:07:00;;;;;;;;;;;;;;;3.89;62.79;101124.78;5013784;28;20041;-85
2023/01/29 10:09:31;;;;;;;20.58;9.90;;;;;;;3.97;63.55;101128.00;5014581;28;19910;-81
2023/01/29 10:12:24;;;;;;;21.00;10.17;;;;;;;3.94;62.43;101103.31;5010828;28;20025;-82
2023/01/29 10:15:17;;;;;;;15.57;9.02;;;;;;;4.07;62.15;101109.75;5012397;28;20347;-81
2023/01/29 10:18:12;;;;;;;17.35;9.13;;;;;;;4.04;62.64;101113.44;5011478;28;20018;-80
2023/01/29 10:20:40;;;;;;;16.02;9.10;;;;;;;3.98;62.67;101108.41;5011415;28;20033;-81
2023/01/29 10:23:24;;;;;;;19.98;10.05;;;;;;;4.01;62.42;101113.59;5012629;28;20041;-86
2023/01/29 10:25:49;;;;;;;19.70;9.20;;;;;;;3.85;62.11;101134.72;5011135;28;20410;-82
2023/01/29 10:28:19;;;;;;;16.88;9.15;;;;;;;3.82;62.58;101134.84;5012302;28;20040;-83
2023/01/29 10:30:48;;;;;;;16.75;10.27;;;;;;;3.83;62.93;101117.09;4993673;28;20065;-83
2023/01/29 10:33:29;;;;;;;24.17;10.23;;;;;;;3.82;62.75;101126.88;5011449;28;20021;-82
2023/01/29 10:36:01;;;;;;;19.35;9.18;;;;;;;3.87;62.19;101121.34;5011647;28;20065;-81
2023/01/29 10:38:41;;;;;;;31.23;11.13;;;;;;;3.87;61.36;101125.81;5015493;28;20025;-82
2023/01/29 10:41:10;;;;;;;17.15;9.27;;;;;;;3.85;61.63;101123.22;5014193;28;20060;-82
2023/01/29 10:44:11;;;;;;;21.02;10.07;;;;;;;3.77;61.46;101128.03;5013359;28;20470;-84
2023/01/29 10:47:11;;;;;;;20.00;10.23;;;;;;;3.84;61.86;101137.47;4950150;29;20039;-84
2023/01/29 10:49:42;;;;;;;15.18;9.48;;;;;;;3.68;62.57;101115.13;4955244;29;20032;-87
2023/01/29 10:52:26;;;;;;;16.45;9.45;;;;;;;3.71;61.88;101104.34;4963996;29;20086;-84
2023/01/29 10:55:16;;;;;;;18.58;10.68;;;;;;;3.47;61.61;101087.72;4951222;29;20031;-90
2023/01/29 10:58:26;;;;;;;26.92;9.73;;;;;;;3.54;61.73;101101.59;4940046;29;20567;-89
2023/01/29 11:00:51;;;;;;;24.45;10.80;;;;;;;3.60;61.48;101106.66;4933029;29;20046;-86
2023/01/29 11:03:28;;;;;;;22.73;10.98;;;;;;;3.50;61.81;101089.38;4932970;29;20047;-87
2023/01/29 11:06:10;;;;;;;17.83;9.18;;;;;;;3.58;62.00;101114.69;4930682;29;20043;-89
2023/01/29 11:08:47;;;;;;;27.35;10.60;;;;;;;3.67;61.66;101102.78;4929605;29;20047;-84
2023/01/29 11:11:17;;;;;;;18.92;10.00;;;;;;;3.65;61.52;101107.28;4931166;29;20108;-85
2023/01/29 11:13:52;;;;;;;28.05;13.02;;;;;;;3.61;61.68;101121.66;4931265;29;20040;-84
2023/01/29 11:16:17;;;;;;;28.98;12.73;;;;;;;3.83;62.04;101112.66;4930693;29;20039;-84
2023/01/29 11:18:51;;;;;;;19.15;10.15;;;;;;;3.90;60.84;101120.34;4930523;29;20111;-81
2023/01/29 11:21:16;;;;;;;26.60;12.30;;;;;;;3.86;61.12;101122.28;4927990;29;20040;-84
2023/01/29 11:23:42;;;;;;;20.92;12.07;;;;;;;3.92;61.26;101132.63;4953503;28;20489;-84
2023/01/29 11:26:11;;;;;;;28.67;11.88;;;;;;;3.87;61.60;101132.00;4969826;28;20055;-84
2023/01/29 11:28:45;;;;;;;21.60;11.90;;;;;;;3.96;61.77;101131.56;4971124;28;20113;-81
2023/01/29 11:31:35;;;;;;;19.73;11.18;;;;;;;3.94;61.41;101133.44;4969215;28;20066;-85
2023/01/29 11:34:05;;;;;;;30.80;10.38;;;;;;;3.94;61.47;101129.91;4974411;28;20469;-82
2023/01/29 11:36:36;;;;;;;21.40;12.23;;;;;;;3.90;61.50;101153.16;4991221;28;20069;-81
2023/01/29 11:39:18;;;;;;;35.13;16.77;;;;;;;3.93;60.96;101150.34;4993128;28;20081;-83
2023/01/29 11:41:59;;;;;;;21.02;10.65;;;;;;;3.99;61.35;101151.84;4996895;28;20121;-82
2023/01/29 11:44:30;;;;;;;22.23;11.50;;;;;;;3.97;60.90;101143.97;4991151;28;20025;-82
2023/01/29 11:47:09;;;;;;;21.63;10.77;;;;;;;3.79;61.06;101142.13;4991452;28;20060;-86
2023/01/29 11:49:36;;;;;;;18.10;9.98;;;;;;;3.76;61.05;101129.81;4990649;28;20030;-82
2023/01/29 11:52:04;;;;;;;20.70;10.70;;;;;;;3.74;60.92;101141.47;4990639;28;20528;-81
2023/01/29 11:54:38;;;;;;;20.50;10.35;;;;;;;3.80;61.26;101144.72;4991900;28;20113;-84
2023/01/29 11:57:04;;;;;;;21.27;10.80;;;;;;;3.66;60.81;101123.19;4991768;28;20026;-83
2023/01/29 11:59:50;;;;;;;19.30;11.23;;;;;;;3.79;61.03;101134.16;4992972;28;20042;-83
2023/01/29 12:02:25;;;;;;;34.85;13.55;;;;;;;3.85;61.36;101134.72;4991653;28;20417;-85
2023/01/29 12:04:54;;;;;;;28.60;13.50;;;;;;;3.92;60.97;101129.97;4991471;28;20022;-86
2023/01/29 12:07:20;;;;;;;25.60;14.23;;;;;;;3.85;60.87;101133.88;5010041;28;20060;-82
2023/01/29 12:09:56;;;;;;;25.35;11.98;;;;;;;3.81;61.02;101133.16;5002610;28;20105;-83